Estación Meteorológica Peña el Pijo (Robertgarden) [ 12/11/19 23:06:43 CET ]

Fecha Hora Presion(HPa) Temp (°C) Humedad % Rocio (°C) Viento ( m/s) Direccion Lluvia 1Hora(mm) Lluvia 24H(mm) LLuvia Total(mm)
2019-Sep-28 01:01:43 1013.900 11.5 65 5.1         490.25
2019-Sep-28 02:01:50 1013.700 10.3 66 4.2         490.25
2019-Sep-28 03:02:03 1013.700 9.6 68 4.0         490.25
2019-Sep-28 04:02:15 1013.200 9.1 70 4.0         490.25
2019-Sep-28 05:02:06 1012.600 8.6 73 4.0         490.25
2019-Sep-28 06:02:14 1012.900 7.8 75 3.6         490.25
2019-Sep-28 07:01:43 1013.000 8.1 76 4.1         490.25
2019-Sep-28 08:01:56 1013.300 7.8 77 4.0         490.25
2019-Sep-28 09:01:43 1013.800 8.0 78 4.4         490.25
2019-Sep-28 10:01:57 1014.100 15.8 65 9.2         490.25
2019-Sep-28 11:01:38 1014.500 21.1 52 10.8         490.25
2019-Sep-28 12:01:40 1014.100 25.4 38 10.0         490.25
2019-Sep-28 13:01:47 1013.700 29.2 33 11.2         490.25
2019-Sep-28 14:01:34 1013.300 30.8 32 12.1         490.25
2019-Sep-28 15:01:50 1012.600 31.6 28 10.7         490.25
2019-Sep-28 16:01:35 1012.200 32.5 27 10.9         490.25
2019-Sep-28 17:01:38 1011.900 30.8 28 10.0         490.25
2019-Sep-28 18:01:49 1012.000 28.8 37 12.6         490.25
2019-Sep-28 19:01:55 1012.200 25.8 44 12.6         490.25
2019-Sep-28 20:02:01 1012.100 21.9 56 12.7         490.25
2019-Sep-28 21:02:08 1012.800 19.3 63 12.1         490.25
2019-Sep-28 22:02:00 1013.300 16.1 71 10.9         490.25
2019-Sep-28 23:02:09 1013.700 14.4 76 10.2         490.25

Temperatura Máxima:32°    Temperatura Mínima:
Presión Máxima:1014.500 Hpa    Presión Mínima:1011.900 Hpa


Volver